Time;durP1;ratioP1;P1;durP2;ratioP2;P2;SDS_P1;SDS_P2;PMS_P1;PMS_P2;Temp;Humidity;BMP_temperature;BMP_pressure;BME280_temperature;BME280_humidity;BME280_pressure;Samples;Min_cycle;Max_cycle;Signal;HPM_P1;HPM_P2
2021/04/22 00:02:19;;;;;;;16.47;8.10;;;6.20;94.80;;;;;;5029495;28;20172;-60
2021/04/22 00:04:45;;;;;;;14.30;9.40;;;6.20;95.10;;;;;;5034944;28;20195;-59
2021/04/22 00:07:11;;;;;;;14.53;8.97;;;6.20;95.10;;;;;;5045468;28;20225;-59
2021/04/22 00:09:37;;;;;;;14.83;9.30;;;6.20;95.10;;;;;;5039911;28;20234;-60
2021/04/22 00:12:09;;;;;;;13.30;8.80;;;6.20;95.20;;;;;;5041176;28;20679;-60
2021/04/22 00:14:34;;;;;;;12.30;7.80;;;6.20;95.20;;;;;;5049005;28;20516;-60
2021/04/22 00:17:01;;;;;;;14.70;9.37;;;6.20;95.30;;;;;;5046654;28;20509;-60
2021/04/22 00:19:26;;;;;;;14.10;9.30;;;6.20;95.40;;;;;;5049270;28;20486;-59
2021/04/22 00:21:52;;;;;;;14.67;9.00;;;6.20;95.30;;;;;;5047284;28;20449;-62
2021/04/22 00:24:17;;;;;;;15.43;9.93;;;6.20;95.30;;;;;;5027275;28;20188;-61
2021/04/22 00:26:43;;;;;;;13.77;9.30;;;6.20;95.40;;;;;;5047814;28;20210;-60
2021/04/22 00:29:11;;;;;;;21.20;9.80;;;6.20;95.40;;;;;;5048442;28;20209;-60
2021/04/22 00:31:37;;;;;;;14.70;8.60;;;6.20;95.60;;;;;;5043344;28;20207;-61
2021/04/22 00:34:02;;;;;;;15.00;9.60;;;6.20;95.60;;;;;;5048748;28;20429;-62
2021/04/22 00:36:28;;;;;;;15.30;9.90;;;6.20;95.50;;;;;;5048465;28;20190;-58
2021/04/22 00:38:54;;;;;;;20.10;10.80;;;6.10;95.50;;;;;;5047681;28;20640;-60
2021/04/22 00:41:19;;;;;;;13.83;9.83;;;6.20;95.60;;;;;;5044678;28;20218;-59
2021/04/22 00:43:45;;;;;;;13.80;9.40;;;6.20;95.70;;;;;;5048667;28;20824;-59
2021/04/22 00:46:11;;;;;;;17.50;10.33;;;6.20;95.80;;;;;;5046986;28;20555;-60
2021/04/22 00:48:36;;;;;;;15.67;9.10;;;6.20;95.90;;;;;;5047792;28;20274;-61
2021/04/22 00:51:02;;;;;;;15.67;9.27;;;6.10;95.80;;;;;;5048624;28;20260;-60
2021/04/22 00:53:29;;;;;;;14.27;9.77;;;6.10;95.80;;;;;;5033277;28;20331;-60
2021/04/22 00:55:55;;;;;;;15.50;10.30;;;6.10;95.80;;;;;;5046033;28;20451;-60
2021/04/22 00:58:21;;;;;;;13.97;9.53;;;6.10;96.10;;;;;;5044173;28;20426;-59
2021/04/22 01:01:01;;;;;;;18.43;9.80;;;6.10;96.30;;;;;;5042582;28;20661;-60
2021/04/22 01:03:28;;;;;;;14.60;9.90;;;6.10;96.30;;;;;;5045310;28;20179;-60
2021/04/22 01:05:59;;;;;;;13.33;9.27;;;6.10;96.40;;;;;;5045082;28;20430;-60
2021/04/22 01:08:25;;;;;;;15.07;9.17;;;6.10;96.40;;;;;;5041708;28;20420;-59
2021/04/22 01:10:51;;;;;;;16.03;10.13;;;6.00;96.40;;;;;;5048903;28;21003;-59
2021/04/22 01:13:17;;;;;;;15.17;9.60;;;6.10;96.60;;;;;;5044163;28;20433;-60
2021/04/22 01:15:43;;;;;;;16.20;9.40;;;6.10;96.60;;;;;;5035172;28;20513;-60
2021/04/22 01:18:09;;;;;;;12.10;8.67;;;6.00;96.60;;;;;;5045528;28;21178;-60
2021/04/22 01:20:39;;;;;;;13.10;8.70;;;6.10;96.70;;;;;;5047720;28;20828;-61
2021/04/22 01:23:05;;;;;;;15.70;9.63;;;6.00;96.70;;;;;;5044918;28;20432;-59
2021/04/22 01:25:37;;;;;;;11.23;8.60;;;6.00;96.60;;;;;;5045186;28;20522;-59
2021/04/22 01:28:05;;;;;;;14.93;8.97;;;6.00;96.60;;;;;;5044458;28;20536;-60
2021/04/22 01:30:35;;;;;;;13.77;9.80;;;5.90;96.40;;;;;;5037319;28;20772;-60
2021/04/22 01:33:04;;;;;;;12.47;8.63;;;5.90;96.20;;;;;;5038625;28;20567;-59
2021/04/22 01:35:33;;;;;;;12.90;8.33;;;5.80;96.00;;;;;;5040094;28;20797;-60
2021/04/22 01:37:59;;;;;;;14.37;8.50;;;5.70;96.00;;;;;;5040942;28;20515;-60
2021/04/22 01:40:26;;;;;;;16.03;9.37;;;5.60;96.00;;;;;;5044986;28;20453;-60
2021/04/22 01:42:54;;;;;;;16.37;9.53;;;5.60;96.10;;;;;;5043782;28;20540;-60
2021/04/22 01:45:21;;;;;;;15.00;9.10;;;5.50;96.40;;;;;;5039553;28;20861;-59
2021/04/22 01:47:47;;;;;;;13.80;9.10;;;5.40;96.80;;;;;;5045183;28;20696;-61
2021/04/22 01:50:17;;;;;;;14.30;8.63;;;5.40;97.20;;;;;;5046977;28;20481;-59
2021/04/22 01:52:43;;;;;;;14.70;9.63;;;5.40;97.10;;;;;;5046214;28;20512;-60
2021/04/22 01:55:11;;;;;;;13.33;8.80;;;5.40;97.20;;;;;;5046206;28;20444;-60
2021/04/22 01:57:40;;;;;;;14.97;9.13;;;5.40;97.10;;;;;;5050695;28;20429;-60
2021/04/22 02:00:13;;;;;;;13.90;8.90;;;5.30;97.00;;;;;;5049847;28;20456;-58
2021/04/22 02:02:39;;;;;;;13.30;8.53;;;5.30;97.00;;;;;;5042204;28;20461;-59
2021/04/22 02:05:06;;;;;;;14.23;9.33;;;5.20;97.00;;;;;;5041206;28;20985;-60
2021/04/22 02:07:32;;;;;;;16.10;8.73;;;5.20;97.00;;;;;;5048882;28;20461;-60
2021/04/22 02:09:57;;;;;;;14.80;9.00;;;5.10;97.20;;;;;;5049493;28;20425;-59
2021/04/22 02:12:23;;;;;;;14.40;8.97;;;5.10;97.30;;;;;;5047540;28;20194;-60
2021/04/22 02:14:48;;;;;;;12.67;9.30;;;5.10;97.40;;;;;;5050332;28;20183;-61
2021/04/22 02:17:14;;;;;;;12.50;8.83;;;5.10;97.50;;;;;;5049419;28;20215;-59
2021/04/22 02:19:40;;;;;;;13.17;9.60;;;5.10;97.60;;;;;;5041159;28;20180;-60
2021/04/22 02:22:06;;;;;;;13.20;8.37;;;5.00;97.40;;;;;;5040717;28;20722;-60
2021/04/22 02:24:32;;;;;;;18.37;10.33;;;5.00;97.40;;;;;;5044358;28;20187;-61
2021/04/22 02:26:57;;;;;;;13.47;9.00;;;5.00;97.30;;;;;;5043339;28;20484;-60
2021/04/22 02:29:23;;;;;;;12.40;9.37;;;5.00;97.50;;;;;;5038934;28;20299;-60
2021/04/22 02:31:49;;;;;;;13.53;9.47;;;4.90;97.40;;;;;;5040214;28;20211;-60
2021/04/22 02:34:14;;;;;;;14.00;9.10;;;4.90;97.40;;;;;;5065209;28;20611;-60
2021/04/22 02:36:40;;;;;;;17.37;9.93;;;4.90;97.50;;;;;;5047983;28;20194;-58
2021/04/22 02:39:06;;;;;;;12.77;8.53;;;4.80;97.40;;;;;;5050294;28;20187;-59
2021/04/22 02:41:32;;;;;;;12.40;8.80;;;4.80;97.30;;;;;;5043299;28;20256;-60
2021/04/22 02:43:57;;;;;;;12.90;9.30;;;4.70;97.20;;;;;;5049549;28;20850;-60
2021/04/22 02:46:23;;;;;;;14.23;9.63;;;4.70;97.30;;;;;;5049052;28;20207;-59
2021/04/22 02:48:49;;;;;;;15.80;9.00;;;4.70;97.30;;;;;;5050862;28;20559;-60
2021/04/22 02:51:14;;;;;;;12.90;9.27;;;4.60;97.50;;;;;;5042080;28;20585;-61
2021/04/22 02:53:40;;;;;;;19.93;11.73;;;4.70;97.60;;;;;;5047738;28;20229;-60
2021/04/22 02:56:06;;;;;;;24.20;10.80;;;4.60;97.80;;;;;;5048643;28;20175;-59
2021/04/22 02:58:32;;;;;;;15.83;9.97;;;4.60;97.50;;;;;;5049139;28;20175;-60
2021/04/22 03:00:58;;;;;;;17.30;10.27;;;4.60;97.60;;;;;;5048083;28;20203;-60
2021/04/22 03:03:24;;;;;;;15.03;10.10;;;4.50;97.50;;;;;;5045471;28;20945;-60
2021/04/22 03:05:50;;;;;;;15.03;10.13;;;4.50;97.60;;;;;;5049099;28;20797;-60
2021/04/22 03:08:16;;;;;;;17.40;10.70;;;4.40;97.50;;;;;;5047838;28;20434;-60
2021/04/22 03:10:43;;;;;;;16.53;9.77;;;4.40;97.60;;;;;;5049808;28;20862;-59
2021/04/22 03:13:10;;;;;;;22.50;9.80;;;4.40;97.60;;;;;;5048420;28;20515;-62
2021/04/22 03:15:36;;;;;;;15.23;10.07;;;4.30;97.60;;;;;;5041017;28;20524;-60
2021/04/22 03:18:03;;;;;;;14.77;10.00;;;4.30;97.70;;;;;;5048478;28;20436;-60
2021/04/22 03:20:28;;;;;;;19.53;9.90;;;4.30;97.90;;;;;;5044129;28;20454;-61
2021/04/22 03:22:54;;;;;;;15.17;10.50;;;4.30;97.90;;;;;;5043029;28;20485;-61
2021/04/22 03:25:23;;;;;;;13.70;9.40;;;4.30;97.90;;;;;;5036598;28;20988;-60
2021/04/22 03:27:49;;;;;;;12.47;8.83;;;4.20;97.80;;;;;;5049884;28;20203;-60
2021/04/22 03:30:16;;;;;;;14.70;9.50;;;4.20;97.60;;;;;;5054308;28;20464;-62
2021/04/22 03:32:43;;;;;;;15.80;8.90;;;4.20;97.50;;;;;;5058897;28;21005;-62
2021/04/22 03:35:10;;;;;;;12.83;8.90;;;4.20;97.40;;;;;;5069298;28;20397;-61
2021/04/22 03:37:36;;;;;;;17.20;9.90;;;4.10;97.40;;;;;;5066993;28;20433;-60
2021/04/22 03:40:04;;;;;;;16.70;9.50;;;4.00;97.10;;;;;;5059976;28;20505;-61
2021/04/22 03:42:29;;;;;;;13.33;8.90;;;4.00;97.30;;;;;;5066323;28;20420;-62
2021/04/22 03:44:55;;;;;;;14.70;9.13;;;3.90;97.60;;;;;;5049054;28;20948;-60
2021/04/22 03:47:21;;;;;;;13.70;9.23;;;3.90;98.00;;;;;;5044961;28;20245;-62
2021/04/22 03:49:46;;;;;;;14.30;9.60;;;3.90;98.30;;;;;;5041739;28;20191;-59
2021/04/22 03:52:12;;;;;;;15.57;10.50;;;3.90;98.70;;;;;;5030939;28;20191;-59
2021/04/22 03:54:41;;;;;;;16.50;10.60;;;3.90;99.10;;;;;;5043030;28;20212;-60
2021/04/22 03:57:07;;;;;;;17.43;10.50;;;3.90;99.40;;;;;;5044485;28;20440;-60
2021/04/22 03:59:33;;;;;;;17.90;9.97;;;3.90;99.50;;;;;;5044449;28;20571;-60
2021/04/22 04:01:59;;;;;;;17.80;10.33;;;3.90;99.70;;;;;;5042408;28;20535;-60
2021/04/22 04:04:25;;;;;;;16.70;10.63;;;3.90;99.80;;;;;;5047632;28;20891;-60
2021/04/22 04:06:50;;;;;;;13.57;9.87;;;3.90;99.50;;;;;;5039444;28;20567;-61
2021/04/22 04:09:16;;;;;;;14.63;10.57;;;3.90;99.50;;;;;;5045200;28;20198;-60
2021/04/22 04:11:42;;;;;;;16.23;10.20;;;3.90;99.60;;;;;;5044560;28;20238;-59
2021/04/22 04:14:08;;;;;;;16.50;10.30;;;4.00;99.60;;;;;;5048843;28;20181;-59
2021/04/22 04:16:33;;;;;;;17.70;10.70;;;4.00;99.70;;;;;;5049614;28;20420;-59
2021/04/22 04:18:59;;;;;;;16.73;10.20;;;4.00;99.80;;;;;;5042134;28;20187;-58
2021/04/22 04:21:24;;;;;;;20.60;10.97;;;4.00;99.80;;;;;;5042480;28;20210;-62
2021/04/22 04:23:50;;;;;;;19.93;11.80;;;4.00;99.70;;;;;;5040164;28;20695;-59
2021/04/22 04:26:17;;;;;;;14.00;10.60;;;4.00;99.60;;;;;;5042831;28;20199;-59
2021/04/22 04:28:42;;;;;;;17.27;11.10;;;4.00;99.70;;;;;;5039792;28;20806;-59
2021/04/22 04:31:10;;;;;;;17.23;9.60;;;4.10;99.70;;;;;;5046341;28;20430;-59
2021/04/22 04:33:36;;;;;;;17.17;10.50;;;4.10;99.80;;;;;;5048151;28;20187;-60
2021/04/22 04:36:03;;;;;;;17.00;10.00;;;4.10;99.70;;;;;;5039074;28;20956;-60
2021/04/22 04:38:29;;;;;;;18.23;11.27;;;4.20;99.60;;;;;;5043654;28;20498;-60
2021/04/22 04:40:54;;;;;;;15.70;9.97;;;4.20;99.60;;;;;;5041568;28;20470;-59
2021/04/22 04:43:20;;;;;;;18.33;10.90;;;4.20;99.40;;;;;;5035688;28;20187;-60
2021/04/22 04:45:47;;;;;;;19.30;10.47;;;4.20;99.20;;;;;;5035881;28;20745;-60
2021/04/22 04:48:12;;;;;;;18.50;10.83;;;4.20;99.00;;;;;;5033445;28;20175;-58
2021/04/22 04:50:39;;;;;;;17.20;12.13;;;4.20;99.20;;;;;;5037054;28;22323;-62
2021/04/22 04:53:05;;;;;;;21.60;11.60;;;4.20;99.30;;;;;;5036732;28;20237;-61
2021/04/22 04:55:30;;;;;;;17.30;10.53;;;4.30;99.40;;;;;;5036520;28;21092;-60
2021/04/22 04:57:56;;;;;;;16.10;10.80;;;4.30;99.50;;;;;;5028433;28;20523;-60
2021/04/22 05:00:22;;;;;;;21.97;11.43;;;4.30;99.30;;;;;;5043745;28;20226;-60
2021/04/22 05:02:48;;;;;;;17.73;10.67;;;4.40;99.40;;;;;;5042514;28;20606;-60
2021/04/22 05:05:14;;;;;;;18.93;11.33;;;4.50;99.40;;;;;;5036546;28;20524;-63
2021/04/22 05:07:40;;;;;;;16.27;11.07;;;4.50;99.10;;;;;;5032435;28;20687;-59
2021/04/22 05:10:07;;;;;;;17.10;10.70;;;4.60;99.10;;;;;;5040934;28;20470;-59
2021/04/22 05:12:34;;;;;;;19.30;11.07;;;4.70;99.20;;;;;;5040941;28;20258;-59
2021/04/22 05:14:59;;;;;;;21.83;11.10;;;4.70;99.20;;;;;;5051686;28;20516;-59
2021/04/22 05:17:25;;;;;;;22.80;11.37;;;4.80;99.20;;;;;;5046937;28;20965;-57
2021/04/22 05:19:52;;;;;;;17.60;10.97;;;4.90;99.00;;;;;;5047442;28;20182;-57
2021/04/22 05:22:17;;;;;;;21.83;11.90;;;5.00;98.80;;;;;;5049355;28;20916;-61
2021/04/22 05:24:43;;;;;;;14.43;10.53;;;5.00;98.50;;;;;;5048265;28;20464;-57
2021/04/22 05:27:09;;;;;;;19.20;10.30;;;5.00;98.30;;;;;;5040088;28;20234;-61
2021/04/22 05:29:35;;;;;;;22.70;11.00;;;5.00;98.10;;;;;;5048550;28;20540;-58
2021/04/22 05:32:01;;;;;;;16.27;10.40;;;5.10;98.40;;;;;;5047713;28;20193;-58
2021/04/22 05:34:27;;;;;;;17.20;10.50;;;5.10;98.30;;;;;;5050121;28;20841;-57
2021/04/22 05:36:54;;;;;;;13.60;9.70;;;5.10;98.40;;;;;;5045357;28;21271;-57
2021/04/22 05:39:22;;;;;;;15.83;10.13;;;5.10;98.30;;;;;;5050034;28;20437;-60
2021/04/22 05:41:48;;;;;;;14.67;9.40;;;5.20;98.20;;;;;;5046411;28;20551;-58
2021/04/22 05:44:14;;;;;;;19.57;10.00;;;5.20;98.20;;;;;;5047375;28;20429;-58
2021/04/22 05:46:40;;;;;;;15.60;9.80;;;5.20;98.00;;;;;;5047335;28;21268;-59
2021/04/22 05:49:06;;;;;;;26.10;11.63;;;5.30;98.00;;;;;;5048461;28;20228;-58
2021/04/22 05:51:32;;;;;;;18.77;11.53;;;5.30;98.00;;;;;;5040867;28;20452;-58
2021/04/22 05:53:58;;;;;;;20.67;11.50;;;5.30;98.10;;;;;;5045245;28;20198;-60
2021/04/22 05:56:25;;;;;;;16.20;9.53;;;5.40;98.00;;;;;;5053940;28;20191;-60
2021/04/22 05:58:50;;;;;;;17.83;10.53;;;5.40;98.40;;;;;;5050537;28;20433;-59
2021/04/22 06:01:16;;;;;;;19.37;10.77;;;5.40;98.20;;;;;;5035582;28;20537;-57
2021/04/22 06:03:42;;;;;;;24.03;9.73;;;5.50;97.90;;;;;;5047389;28;20206;-58
2021/04/22 06:06:07;;;;;;;17.03;10.33;;;5.50;97.60;;;;;;5041143;28;20172;-59
2021/04/22 06:08:33;;;;;;;23.33;12.63;;;5.60;97.50;;;;;;5045827;28;20659;-58
2021/04/22 06:10:59;;;;;;;20.50;11.03;;;5.70;97.60;;;;;;5041629;28;20294;-58
2021/04/22 06:13:25;;;;;;;14.07;10.40;;;5.80;97.50;;;;;;5046484;28;20179;-57
2021/04/22 06:15:50;;;;;;;17.60;11.40;;;5.90;97.10;;;;;;5043882;28;20206;-58
2021/04/22 06:18:16;;;;;;;14.50;10.17;;;6.00;97.20;;;;;;5047380;28;20529;-58
2021/04/22 06:20:42;;;;;;;16.87;10.87;;;6.20;96.80;;;;;;5045721;28;20269;-61
2021/04/22 06:23:07;;;;;;;15.00;11.30;;;6.40;96.50;;;;;;5046917;28;20206;-58
2021/04/22 06:25:33;;;;;;;20.40;11.90;;;6.50;96.20;;;;;;5049653;28;20643;-58
2021/04/22 06:27:59;;;;;;;16.50;11.70;;;6.70;95.90;;;;;;5045401;28;20200;-58
2021/04/22 06:30:27;;;;;;;15.80;11.10;;;6.90;96.10;;;;;;5048276;28;20187;-59
2021/04/22 06:32:53;;;;;;;24.30;12.90;;;7.10;95.00;;;;;;5039405;28;20426;-58
2021/04/22 06:35:19;;;;;;;21.60;12.90;;;7.20;94.50;;;;;;5048319;28;20429;-58
2021/04/22 06:37:45;;;;;;;23.43;13.23;;;7.40;93.80;;;;;;5051130;28;20461;-59
2021/04/22 06:40:19;;;;;;;30.97;13.83;;;7.50;93.80;;;;;;5046964;28;20218;-59
2021/04/22 06:42:46;;;;;;;27.07;12.03;;;7.50;93.20;;;;;;5099049;22;20486;-55
2021/04/22 06:45:13;;;;;;;21.53;12.93;;;7.60;93.30;;;;;;5080065;28;20886;-57
2021/04/22 06:47:40;;;;;;;20.40;12.20;;;7.70;92.80;;;;;;5086959;28;20459;-55
2021/04/22 06:50:08;;;;;;;22.30;12.47;;;7.70;92.70;;;;;;5087129;28;20948;-57
2021/04/22 06:52:34;;;;;;;27.57;12.97;;;7.70;93.10;;;;;;5077299;28;20501;-57
2021/04/22 06:55:01;;;;;;;19.43;12.63;;;7.90;93.90;;;;;;5065207;28;20432;-55
2021/04/22 06:57:27;;;;;;;18.90;12.60;;;8.00;93.50;;;;;;5066847;28;20801;-55
2021/04/22 06:59:52;;;;;;;19.83;11.50;;;8.20;93.30;;;;;;5067361;28;20440;-56
2021/04/22 07:02:18;;;;;;;21.50;11.87;;;8.30;93.00;;;;;;5066080;28;20665;-56
2021/04/22 07:04:44;;;;;;;25.40;11.07;;;8.50;92.60;;;;;;5057915;28;20189;-58
2021/04/22 07:07:10;;;;;;;30.23;14.30;;;8.70;92.60;;;;;;5066519;28;20203;-55
2021/04/22 07:09:35;;;;;;;27.37;12.47;;;8.90;92.50;;;;;;5056946;28;21001;-57
2021/04/22 07:12:03;;;;;;;20.40;12.80;;;9.10;91.80;;;;;;5052102;28;20452;-55
2021/04/22 07:14:29;;;;;;;19.17;12.53;;;9.30;91.10;;;;;;5062260;28;20170;-57
2021/04/22 07:16:55;;;;;;;23.07;13.03;;;9.50;90.50;;;;;;5070793;28;20439;-55
2021/04/22 07:19:20;;;;;;;23.17;13.13;;;9.70;90.40;;;;;;5064591;28;20429;-57
2021/04/22 07:21:46;;;;;;;22.77;13.40;;;9.90;90.10;;;;;;5063449;28;20679;-55
2021/04/22 07:24:12;;;;;;;24.70;14.40;;;10.10;86.30;;;;;;5072405;28;20180;-56
2021/04/22 07:26:38;;;;;;;26.43;14.83;;;10.20;81.20;;;;;;5053548;28;20336;-56
2021/04/22 07:29:04;;;;;;;30.53;15.40;;;10.10;80.70;;;;;;5064772;28;20174;-56
2021/04/22 07:31:30;;;;;;;21.70;14.37;;;10.20;82.50;;;;;;5067680;28;20722;-56
2021/04/22 07:33:56;;;;;;;24.10;15.37;;;10.30;81.80;;;;;;5072562;28;20582;-56
2021/04/22 07:36:21;;;;;;;27.20;15.20;;;10.40;83.80;;;;;;5064863;28;20436;-56
2021/04/22 07:38:48;;;;;;;28.20;16.43;;;10.50;83.90;;;;;;5063267;28;20443;-56
2021/04/22 07:41:14;;;;;;;28.47;17.40;;;10.60;81.90;;;;;;5064009;28;20321;-56
2021/04/22 07:43:40;;;;;;;33.40;15.90;;;10.70;81.50;;;;;;5059394;28;20447;-56
2021/04/22 07:46:06;;;;;;;29.73;17.93;;;10.70;81.70;;;;;;5060428;28;20428;-57
2021/04/22 07:48:32;;;;;;;30.10;18.87;;;10.90;82.20;;;;;;5064294;28;21688;-55
2021/04/22 07:50:59;;;;;;;29.00;18.40;;;11.00;82.30;;;;;;5068219;28;20432;-57
2021/04/22 07:53:25;;;;;;;32.53;19.20;;;11.00;78.40;;;;;;5060644;28;20680;-56
2021/04/22 07:55:50;;;;;;;31.10;19.20;;;11.10;79.40;;;;;;5053022;28;20529;-55
2021/04/22 07:58:17;;;;;;;32.57;19.07;;;11.10;78.20;;;;;;5058409;28;20881;-57
2021/04/22 08:00:44;;;;;;;28.93;18.80;;;11.10;77.50;;;;;;5059543;28;20926;-56
2021/04/22 08:03:12;;;;;;;28.07;18.73;;;11.20;78.60;;;;;;5061548;28;20452;-56
2021/04/22 08:05:39;;;;;;;32.23;18.53;;;11.30;78.70;;;;;;5058266;28;20430;-57
2021/04/22 08:08:10;;;;;;;36.73;18.97;;;11.50;77.70;;;;;;5061285;28;20449;-53
2021/04/22 08:10:39;;;;;;;37.97;21.03;;;11.60;77.80;;;;;;5065617;28;20435;-56
2021/04/22 08:13:07;;;;;;;34.13;20.57;;;11.70;77.10;;;;;;5062532;28;20437;-54
2021/04/22 08:15:36;;;;;;;29.30;19.10;;;11.80;75.90;;;;;;5062356;28;20421;-54
2021/04/22 08:18:02;;;;;;;34.73;20.70;;;11.90;73.40;;;;;;5063907;28;20920;-55
2021/04/22 08:20:29;;;;;;;32.57;20.60;;;11.90;70.80;;;;;;5069880;28;21178;-54
2021/04/22 08:22:57;;;;;;;43.40;20.20;;;11.80;73.60;;;;;;5056073;28;20444;-57
2021/04/22 08:25:33;;;;;;;37.27;19.70;;;11.90;75.40;;;;;;5063058;28;20460;-55
2021/04/22 08:27:59;;;;;;;33.67;19.97;;;12.00;76.80;;;;;;5058769;28;20514;-54
2021/04/22 08:30:31;;;;;;;34.70;19.10;;;12.30;77.00;;;;;;5055356;28;20815;-55
2021/04/22 08:32:58;;;;;;;33.20;20.33;;;12.50;75.00;;;;;;5055128;28;20883;-54
2021/04/22 08:35:24;;;;;;;35.57;20.60;;;12.60;71.30;;;;;;5052852;28;20452;-54
2021/04/22 08:37:50;;;;;;;40.47;21.60;;;12.60;71.30;;;;;;5056537;28;20433;-53
2021/04/22 08:40:17;;;;;;;48.43;22.80;;;12.60;72.20;;;;;;5060133;28;20856;-56
2021/04/22 08:42:43;;;;;;;39.30;21.90;;;12.70;72.00;;;;;;5063440;28;20260;-54
2021/04/22 08:45:11;;;;;;;41.73;21.73;;;12.80;72.30;;;;;;5060790;28;20864;-55
2021/04/22 08:47:38;;;;;;;40.37;21.90;;;12.90;71.00;;;;;;5061090;28;20479;-59
2021/04/22 08:50:05;;;;;;;42.30;22.83;;;12.90;69.50;;;;;;5057940;28;20460;-55
2021/04/22 08:52:31;;;;;;;33.20;22.77;;;13.00;69.90;;;;;;5059607;28;20893;-56
2021/04/22 08:54:57;;;;;;;38.10;22.20;;;13.10;69.70;;;;;;5058137;28;20428;-55
2021/04/22 08:57:25;;;;;;;40.23;21.30;;;13.10;69.70;;;;;;5050198;28;20171;-55
2021/04/22 08:59:54;;;;;;;48.80;21.50;;;13.10;68.90;;;;;;5065118;28;20431;-56
2021/04/22 09:02:21;;;;;;;36.00;21.97;;;13.10;69.50;;;;;;5056038;28;20877;-55
2021/04/22 09:04:48;;;;;;;44.93;23.60;;;13.10;70.40;;;;;;5062640;28;20437;-54
2021/04/22 09:07:14;;;;;;;34.93;22.63;;;13.10;69.10;;;;;;5063499;28;20461;-56
2021/04/22 09:09:40;;;;;;;34.30;23.03;;;13.00;68.60;;;;;;5058378;28;20429;-56
2021/04/22 09:12:17;;;;;;;43.67;23.70;;;13.00;69.80;;;;;;5060477;28;20451;-55
2021/04/22 09:14:58;;;;;;;37.60;22.70;;;12.90;69.70;;;;;;5058951;28;20668;-55
2021/04/22 09:17:25;;;;;;;40.23;24.53;;;12.90;71.00;;;;;;5062106;28;20424;-55
2021/04/22 09:19:52;;;;;;;44.57;22.87;;;13.10;70.60;;;;;;5059941;28;20583;-54
2021/04/22 09:22:19;;;;;;;39.30;23.60;;;13.30;67.90;;;;;;5066833;28;20539;-55
2021/04/22 09:24:45;;;;;;;36.80;22.73;;;13.60;71.30;;;;;;5056725;28;20863;-55
2021/04/22 09:27:15;;;;;;;38.20;24.00;;;13.80;67.10;;;;;;5062099;28;20468;-57
2021/04/22 09:29:50;;;;;;;46.03;24.17;;;14.00;66.40;;;;;;5064139;28;21136;-56
2021/04/22 09:32:17;;;;;;;45.60;24.37;;;14.20;64.90;;;;;;5066077;28;20662;-55
2021/04/22 09:34:53;;;;;;;37.30;22.77;;;14.30;63.00;;;;;;5059512;28;20807;-56
2021/04/22 09:37:21;;;;;;;37.07;22.70;;;14.40;61.50;;;;;;5061146;28;20509;-56
2021/04/22 09:39:49;;;;;;;34.87;21.57;;;14.40;59.70;;;;;;5062614;28;20432;-54
2021/04/22 09:42:19;;;;;;;37.10;22.77;;;14.30;59.30;;;;;;5054471;28;20472;-56
2021/04/22 09:44:49;;;;;;;31.83;21.90;;;14.20;54.70;;;;;;5057269;28;20436;-54
2021/04/22 09:47:22;;;;;;;35.00;22.30;;;14.20;57.10;;;;;;5061157;28;20551;-54
2021/04/22 09:49:52;;;;;;;32.53;21.40;;;14.30;59.30;;;;;;5055177;28;20983;-54
2021/04/22 09:52:20;;;;;;;31.77;22.00;;;14.50;57.50;;;;;;5066473;28;20960;-56
2021/04/22 09:54:49;;;;;;;31.90;21.10;;;14.70;57.60;;;;;;5062923;28;20560;-56
2021/04/22 09:57:30;;;;;;;39.97;21.97;;;14.80;57.30;;;;;;5061765;28;20429;-57
2021/04/22 09:59:57;;;;;;;36.70;23.53;;;14.90;57.10;;;;;;5053985;28;20420;-55
2021/04/22 10:02:23;;;;;;;35.07;22.93;;;14.90;56.90;;;;;;5056549;28;20450;-56
2021/04/22 10:04:51;;;;;;;35.57;22.87;;;14.80;56.40;;;;;;5056198;28;20561;-53
2021/04/22 10:07:37;;;;;;;40.40;23.03;;;14.80;57.20;;;;;;5055294;28;20456;-55
2021/04/22 10:10:15;;;;;;;35.47;23.43;;;14.90;58.60;;;;;;5055351;28;21105;-55
2021/04/22 10:12:40;;;;;;;35.13;22.33;;;15.00;58.30;;;;;;5058881;28;20445;-54
2021/04/22 10:15:13;;;;;;;33.23;21.87;;;15.20;57.00;;;;;;5068054;28;20431;-55
2021/04/22 10:17:39;;;;;;;33.40;21.63;;;15.30;56.20;;;;;;5061034;28;20233;-54
2021/04/22 10:20:12;;;;;;;33.93;22.67;;;15.40;55.10;;;;;;5058483;28;20432;-55
2021/04/22 10:22:48;;;;;;;28.40;19.57;;;15.60;55.10;;;;;;5065536;28;20339;-56
2021/04/22 10:25:23;;;;;;;35.60;22.90;;;15.70;54.50;;;;;;5070103;28;21220;-53
2021/04/22 10:27:49;;;;;;;32.10;21.53;;;15.80;54.30;;;;;;5063783;28;20494;-55
2021/04/22 10:30:20;;;;;;;39.70;21.53;;;15.90;53.50;;;;;;5066428;28;20502;-55
2021/04/22 10:32:47;;;;;;;39.70;22.63;;;16.00;53.20;;;;;;5064111;28;20190;-56
2021/04/22 10:35:19;;;;;;;30.67;20.47;;;16.20;53.50;;;;;;5059684;28;20941;-54
2021/04/22 10:37:49;;;;;;;32.57;21.57;;;16.30;52.50;;;;;;5057768;28;20428;-55
2021/04/22 10:40:18;;;;;;;33.83;21.33;;;16.40;51.80;;;;;;5056999;28;20456;-56
2021/04/22 10:42:44;;;;;;;30.00;19.43;;;16.60;50.10;;;;;;5059135;28;20460;-57
2021/04/22 10:45:13;;;;;;;33.40;19.83;;;16.60;49.90;;;;;;5059758;28;20464;-58
2021/04/22 10:47:40;;;;;;;29.80;19.20;;;16.60;50.50;;;;;;5056706;28;20566;-57
2021/04/22 10:50:43;;;;;;;28.60;20.20;;;16.60;49.90;;;;;;5066444;28;20422;-56
2021/04/22 10:53:14;;;;;;;31.70;19.43;;;16.60;49.50;;;;;;5036792;28;20448;-56
2021/04/22 10:55:44;;;;;;;28.40;19.00;;;16.80;51.00;;;;;;5062870;28;20508;-57
2021/04/22 10:58:32;;;;;;;27.37;18.40;;;16.90;50.70;;;;;;5059512;28;20521;-56
2021/04/22 11:01:04;;;;;;;27.93;18.47;;;17.10;50.80;;;;;;5059803;28;20529;-58
2021/04/22 11:03:33;;;;;;;27.67;18.10;;;17.00;45.20;;;;;;5060377;28;20577;-63
2021/04/22 11:06:08;;;;;;;27.83;19.30;;;16.90;45.10;;;;;;5062580;28;20960;-57
2021/04/22 11:08:52;;;;;;;26.87;19.00;;;16.80;46.20;;;;;;5061860;28;20420;-55
2021/04/22 11:11:28;;;;;;;33.67;19.57;;;16.70;46.50;;;;;;5062985;28;20807;-56
2021/04/22 11:14:10;;;;;;;27.93;19.70;;;16.80;49.10;;;;;;5054945;28;20484;-56
2021/04/22 11:16:38;;;;;;;30.50;18.90;;;16.80;47.80;;;;;;5058719;28;20504;-57
2021/04/22 11:19:25;;;;;;;28.73;18.87;;;16.70;47.10;;;;;;5063629;28;20438;-57
2021/04/22 11:21:52;;;;;;;28.67;19.43;;;16.80;47.40;;;;;;5054765;28;20529;-58
2021/04/22 11:24:35;;;;;;;28.60;20.43;;;16.80;47.70;;;;;;5054564;28;20437;-57
2021/04/22 11:27:06;;;;;;;30.37;20.67;;;16.80;47.60;;;;;;5063460;28;20487;-57
2021/04/22 11:29:50;;;;;;;29.30;19.80;;;17.00;48.10;;;;;;5067051;28;20513;-56
2021/04/22 11:32:25;;;;;;;29.90;21.20;;;17.20;49.10;;;;;;5060661;28;20458;-55
2021/04/22 11:35:11;;;;;;;37.43;21.77;;;17.40;47.80;;;;;;5058645;28;20852;-57
2021/04/22 11:37:43;;;;;;;38.70;21.90;;;17.60;47.90;;;;;;5059135;28;20487;-56
2021/04/22 11:40:25;;;;;;;44.07;22.97;;;17.80;47.10;;;;;;5059729;28;20491;-57
2021/04/22 11:42:54;;;;;;;33.93;23.10;;;17.90;45.80;;;;;;5072173;28;20597;-56
2021/04/22 11:45:27;;;;;;;26.57;18.73;;;17.80;45.30;;;;;;5060975;28;20467;-58
2021/04/22 11:47:56;;;;;;;32.20;21.53;;;17.60;43.40;;;;;;5052631;28;21111;-58
2021/04/22 11:50:24;;;;;;;26.83;19.87;;;17.40;43.40;;;;;;5058485;28;20441;-58
2021/04/22 11:53:01;;;;;;;29.53;20.17;;;17.40;44.30;;;;;;5055576;28;20454;-56
2021/04/22 11:55:37;;;;;;;32.10;20.83;;;17.70;44.20;;;;;;5064803;28;20844;-56
2021/04/22 11:58:12;;;;;;;33.30;21.80;;;18.00;43.10;;;;;;5070087;28;20948;-54
2021/04/22 12:00:45;;;;;;;32.87;22.80;;;18.30;43.30;;;;;;5083524;28;20435;-58
2021/04/22 12:03:13;;;;;;;30.70;19.90;;;18.40;41.10;;;;;;5063903;28;20448;-57
2021/04/22 12:05:39;;;;;;;32.23;22.70;;;18.20;42.10;;;;;;5061519;28;20480;-55
2021/04/22 12:08:15;;;;;;;33.03;22.70;;;18.30;43.30;;;;;;5066605;28;20963;-57
2021/04/22 12:10:49;;;;;;;49.73;22.33;;;18.00;41.30;;;;;;5065281;28;20782;-57
2021/04/22 12:13:20;;;;;;;32.80;20.87;;;17.60;41.20;;;;;;5062805;28;20479;-55
2021/04/22 12:15:57;;;;;;;28.40;19.63;;;17.20;41.70;;;;;;5063902;28;20425;-55
2021/04/22 12:18:28;;;;;;;37.00;21.10;;;16.80;39.20;;;;;;5068247;28;20538;-57
2021/04/22 12:21:24;;;;;;;33.50;21.73;;;16.80;39.80;;;;;;5065533;28;20429;-55
2021/04/22 12:23:55;;;;;;;35.57;24.00;;;16.80;39.70;;;;;;5066924;28;20500;-54
2021/04/22 12:26:30;;;;;;;34.40;21.30;;;16.70;40.00;;;;;;5075669;28;20410;-56
2021/04/22 12:29:00;;;;;;;32.00;21.53;;;16.50;40.30;;;;;;5062222;28;20415;-55
2021/04/22 12:31:39;;;;;;;34.53;21.43;;;16.30;40.30;;;;;;5074267;28;20445;-56
2021/04/22 12:34:32;;;;;;;53.93;26.27;;;16.10;40.80;;;;;;5061628;28;20837;-55
2021/04/22 12:37:07;;;;;;;34.57;23.03;;;16.10;41.40;;;;;;5057054;28;20433;-54
2021/04/22 12:39:38;;;;;;;40.27;24.30;;;16.40;41.30;;;;;;5058263;28;21027;-56
2021/04/22 12:42:15;;;;;;;42.10;24.63;;;16.60;39.70;;;;;;5075051;22;20492;-60